Time;durP1;ratioP1;P1;durP2;ratioP2;P2;SDS_P1;SDS_P2;PMS_P1;PMS_P2;Temp;Humidity;BMP_temperature;BMP_pressure;BME280_temperature;BME280_humidity;BME280_pressure;Samples;Min_cycle;Max_cycle;Signal;HPM_P1;HPM_P2
2023/12/10 00:01:37;;;;;;;0.50;0.50;;;;;;;;;;5041354;28;20048;-74
2023/12/10 00:04:07;;;;;;;0.60;0.57;;;;;;;;;;5047722;28;20049;-73
2023/12/10 00:06:36;;;;;;;0.50;0.50;;;;;;;;;;5048746;28;20138;-76
2023/12/10 00:09:05;;;;;;;0.50;0.50;;;;;;;;;;5041415;28;20464;-76
2023/12/10 00:11:33;;;;;;;0.60;0.60;;;;;;;;;;5047587;28;20057;-76
2023/12/10 00:14:02;;;;;;;0.50;0.50;;;;;;;;;;5044604;28;20099;-76
2023/12/10 00:16:30;;;;;;;0.50;0.50;;;;;;;;;;5049187;28;20518;-77
2023/12/10 00:18:59;;;;;;;0.60;0.60;;;;;;;;;;5047378;28;20110;-73
2023/12/10 00:21:29;;;;;;;2.28;0.90;;;;;;;;;;5042861;28;20455;-74
2023/12/10 00:23:58;;;;;;;0.60;0.60;;;;;;;;;;5046341;28;20053;-73
2023/12/10 00:26:26;;;;;;;0.40;0.40;;;;;;;;;;5045241;28;20057;-73
2023/12/10 00:28:55;;;;;;;2.15;0.60;;;;;;;;;;5049839;28;20048;-73
2023/12/10 00:31:23;;;;;;;0.65;0.60;;;;;;;;;;5042868;28;20139;-74
2023/12/10 00:33:52;;;;;;;0.70;0.70;;;;;;;;;;5043057;28;20068;-73
2023/12/10 00:36:20;;;;;;;0.50;0.50;;;;;;;;;;5043748;28;20041;-74
2023/12/10 00:38:50;;;;;;;0.93;0.52;;;;;;;;;;5042470;28;20059;-73
2023/12/10 00:41:19;;;;;;;0.70;0.50;;;;;;;;;;5047186;28;20049;-72
2023/12/10 00:43:48;;;;;;;0.50;0.50;;;;;;;;;;5040677;28;20449;-74
2023/12/10 00:46:17;;;;;;;0.50;0.50;;;;;;;;;;5048508;28;20538;-77
2023/12/10 00:48:45;;;;;;;0.60;0.57;;;;;;;;;;5048465;28;20490;-77
2023/12/10 00:51:19;;;;;;;0.73;0.63;;;;;;;;;;5047647;28;20546;-77
2023/12/10 00:53:48;;;;;;;0.50;0.50;;;;;;;;;;5045510;28;20043;-77
2023/12/10 00:56:18;;;;;;;2.08;0.70;;;;;;;;;;5046672;28;20094;-77
2023/12/10 00:58:46;;;;;;;1.85;0.60;;;;;;;;;;5047081;28;20111;-77
2023/12/10 01:01:15;;;;;;;0.70;0.65;;;;;;;;;;5046073;28;20041;-77
2023/12/10 01:03:43;;;;;;;1.17;0.60;;;;;;;;;;5039797;28;20080;-77
2023/12/10 01:06:12;;;;;;;0.40;0.40;;;;;;;;;;5044837;28;20107;-78
2023/12/10 01:08:43;;;;;;;0.43;0.43;;;;;;;;;;5043222;28;20418;-78
2023/12/10 01:11:12;;;;;;;1.40;0.77;;;;;;;;;;5043939;28;20139;-77
2023/12/10 01:13:42;;;;;;;0.52;0.52;;;;;;;;;;5046980;28;20410;-77
2023/12/10 01:16:16;;;;;;;0.82;0.80;;;;;;;;;;5042267;28;20053;-74
2023/12/10 01:18:46;;;;;;;1.27;0.50;;;;;;;;;;5044564;28;20057;-75
2023/12/10 01:21:15;;;;;;;0.40;0.40;;;;;;;;;;5051429;28;20049;-76
2023/12/10 01:23:44;;;;;;;0.68;0.63;;;;;;;;;;5045325;28;20046;-76
2023/12/10 01:26:14;;;;;;;2.72;0.60;;;;;;;;;;5048562;28;20125;-76
2023/12/10 01:28:44;;;;;;;0.50;0.50;;;;;;;;;;5050982;28;20057;-75
2023/12/10 01:31:12;;;;;;;0.77;0.73;;;;;;;;;;5051698;28;20095;-75
2023/12/10 01:33:41;;;;;;;0.57;0.57;;;;;;;;;;5051738;28;20049;-76
2023/12/10 01:36:10;;;;;;;0.55;0.55;;;;;;;;;;5050024;28;20041;-75
2023/12/10 01:38:39;;;;;;;2.85;0.82;;;;;;;;;;5051447;28;20051;-75
2023/12/10 01:41:07;;;;;;;0.40;0.40;;;;;;;;;;5046127;28;20502;-75
2023/12/10 01:43:35;;;;;;;0.50;0.50;;;;;;;;;;5050470;28;20049;-74
2023/12/10 01:46:05;;;;;;;3.10;0.57;;;;;;;;;;5050855;28;20080;-75
2023/12/10 01:48:35;;;;;;;0.82;0.68;;;;;;;;;;5048426;28;20493;-78
2023/12/10 01:51:04;;;;;;;0.57;0.57;;;;;;;;;;5049404;28;20103;-78
2023/12/10 01:53:32;;;;;;;1.00;0.60;;;;;;;;;;5052265;28;20049;-75
2023/12/10 01:56:01;;;;;;;0.50;0.50;;;;;;;;;;5045870;28;20076;-75
2023/12/10 01:58:30;;;;;;;0.40;0.40;;;;;;;;;;5037678;28;20084;-75
2023/12/10 02:00:58;;;;;;;0.50;0.50;;;;;;;;;;5049141;28;20048;-72
2023/12/10 02:03:29;;;;;;;2.40;0.98;;;;;;;;;;5044742;28;20479;-75
2023/12/10 02:05:57;;;;;;;0.70;0.60;;;;;;;;;;5050904;28;20134;-72
2023/12/10 02:08:27;;;;;;;1.85;0.50;;;;;;;;;;5046896;28;20131;-73
2023/12/10 02:10:56;;;;;;;1.05;0.60;;;;;;;;;;5050476;28;20052;-73
2023/12/10 02:13:24;;;;;;;2.28;0.57;;;;;;;;;;5049142;28;20040;-73
2023/12/10 02:15:53;;;;;;;1.88;0.65;;;;;;;;;;5049356;28;20052;-73
2023/12/10 02:18:22;;;;;;;3.22;0.65;;;;;;;;;;5048573;28;20056;-73
2023/12/10 02:20:52;;;;;;;4.15;0.75;;;;;;;;;;5049332;28;20076;-72
2023/12/10 02:23:27;;;;;;;0.60;0.50;;;;;;;;;;5046701;28;20405;-73
2023/12/10 02:25:57;;;;;;;1.17;0.57;;;;;;;;;;5047546;28;20555;-73
2023/12/10 02:28:26;;;;;;;1.70;0.63;;;;;;;;;;5045564;28;20111;-73
2023/12/10 02:30:54;;;;;;;2.15;0.77;;;;;;;;;;5050764;28;20052;-73
2023/12/10 02:33:23;;;;;;;1.98;1.08;;;;;;;;;;5044020;28;20111;-73
2023/12/10 02:35:51;;;;;;;0.77;0.65;;;;;;;;;;5045445;28;20056;-73
2023/12/10 02:38:21;;;;;;;1.08;0.60;;;;;;;;;;5043463;28;20081;-74
2023/12/10 02:40:50;;;;;;;3.42;0.50;;;;;;;;;;5044148;28;20321;-73
2023/12/10 02:43:20;;;;;;;1.35;0.52;;;;;;;;;;5041995;28;20045;-73
2023/12/10 02:45:48;;;;;;;0.50;0.50;;;;;;;;;;5042326;28;20103;-75
2023/12/10 02:48:21;;;;;;;1.17;0.60;;;;;;;;;;5041196;28;21016;-73
2023/12/10 02:50:50;;;;;;;2.33;0.50;;;;;;;;;;5047351;28;20047;-73
2023/12/10 02:53:19;;;;;;;0.70;0.50;;;;;;;;;;5048015;28;20064;-73
2023/12/10 02:55:47;;;;;;;0.73;0.50;;;;;;;;;;5051009;28;20085;-73
2023/12/10 02:58:16;;;;;;;0.43;0.43;;;;;;;;;;5044913;28;20052;-73
2023/12/10 03:00:46;;;;;;;1.48;0.50;;;;;;;;;;5045335;28;20078;-74
2023/12/10 03:03:14;;;;;;;0.40;0.40;;;;;;;;;;5046497;28;20045;-74
2023/12/10 03:05:43;;;;;;;0.55;0.55;;;;;;;;;;5043071;28;20552;-73
2023/12/10 03:08:11;;;;;;;0.50;0.50;;;;;;;;;;5039858;28;20102;-73
2023/12/10 03:10:40;;;;;;;0.43;0.40;;;;;;;;;;5049379;28;20509;-73
2023/12/10 03:13:08;;;;;;;2.05;0.63;;;;;;;;;;5045356;28;20060;-74
2023/12/10 03:15:37;;;;;;;0.93;0.65;;;;;;;;;;5045281;28;20042;-73
2023/12/10 03:18:07;;;;;;;0.95;0.73;;;;;;;;;;5037931;28;20056;-73
2023/12/10 03:20:35;;;;;;;5.05;0.52;;;;;;;;;;5041181;28;20045;-73
2023/12/10 03:23:04;;;;;;;1.00;0.85;;;;;;;;;;5042142;28;20126;-73
2023/12/10 03:25:32;;;;;;;1.13;0.50;;;;;;;;;;5044133;28;20114;-73
2023/12/10 03:28:01;;;;;;;0.80;0.70;;;;;;;;;;5046682;28;20056;-74
2023/12/10 03:30:29;;;;;;;1.67;0.60;;;;;;;;;;5040107;28;20395;-73
2023/12/10 03:32:57;;;;;;;1.55;0.57;;;;;;;;;;5031663;28;20056;-73
2023/12/10 03:35:27;;;;;;;1.55;0.60;;;;;;;;;;5043730;28;20099;-73
2023/12/10 03:37:56;;;;;;;1.20;0.65;;;;;;;;;;5036900;28;20053;-73
2023/12/10 03:40:24;;;;;;;5.20;0.75;;;;;;;;;;5040441;28;20049;-74
2023/12/10 03:42:53;;;;;;;3.30;0.60;;;;;;;;;;5045883;28;20080;-73
2023/12/10 03:45:21;;;;;;;2.15;0.65;;;;;;;;;;5045378;28;20668;-73
2023/12/10 03:47:49;;;;;;;2.92;0.90;;;;;;;;;;5045967;28;20049;-73
2023/12/10 03:50:18;;;;;;;2.20;0.70;;;;;;;;;;5039540;28;20068;-73
2023/12/10 03:52:48;;;;;;;0.60;0.60;;;;;;;;;;5036025;28;20077;-73
2023/12/10 03:55:17;;;;;;;2.70;0.80;;;;;;;;;;5040299;28;20053;-73
2023/12/10 03:57:46;;;;;;;2.83;1.05;;;;;;;;;;5043128;28;20057;-73
2023/12/10 04:00:14;;;;;;;4.30;0.82;;;;;;;;;;5046461;28;20049;-73
2023/12/10 04:02:43;;;;;;;3.47;1.05;;;;;;;;;;5040481;28;20057;-73
2023/12/10 04:05:12;;;;;;;1.15;0.85;;;;;;;;;;5033799;28;20499;-74
2023/12/10 04:07:41;;;;;;;4.97;0.73;;;;;;;;;;5038122;28;20065;-73
2023/12/10 04:10:11;;;;;;;1.45;0.50;;;;;;;;;;5045447;28;20045;-74
2023/12/10 04:12:40;;;;;;;1.25;0.80;;;;;;;;;;5049469;28;20416;-73
2023/12/10 04:15:08;;;;;;;2.53;0.90;;;;;;;;;;5041457;28;20503;-73
2023/12/10 04:17:37;;;;;;;2.22;0.70;;;;;;;;;;5044622;28;20080;-73
2023/12/10 04:20:07;;;;;;;1.13;0.98;;;;;;;;;;5046799;28;20052;-74
2023/12/10 04:22:36;;;;;;;1.50;0.82;;;;;;;;;;5039801;28;20081;-73
2023/12/10 04:25:04;;;;;;;3.72;0.70;;;;;;;;;;5048670;28;20564;-73
2023/12/10 04:27:34;;;;;;;2.25;0.60;;;;;;;;;;5037725;28;20060;-74
2023/12/10 04:30:03;;;;;;;0.60;0.60;;;;;;;;;;5045223;28;20049;-74
2023/12/10 04:32:31;;;;;;;0.80;0.60;;;;;;;;;;5042968;28;20489;-73
2023/12/10 04:34:59;;;;;;;2.05;0.63;;;;;;;;;;5043015;28;20079;-73
2023/12/10 04:37:28;;;;;;;3.65;0.77;;;;;;;;;;5046846;28;20106;-73
2023/12/10 04:39:57;;;;;;;6.47;1.13;;;;;;;;;;5046953;28;20049;-74
2023/12/10 04:42:26;;;;;;;2.42;0.82;;;;;;;;;;5039917;28;20699;-74
2023/12/10 04:44:56;;;;;;;0.52;0.50;;;;;;;;;;5041926;28;20048;-73
2023/12/10 04:47:25;;;;;;;3.05;0.57;;;;;;;;;;5048431;28;20061;-73
2023/12/10 04:49:54;;;;;;;4.18;0.98;;;;;;;;;;5043785;28;20057;-74
2023/12/10 04:52:23;;;;;;;6.05;0.98;;;;;;;;;;5043811;28;20068;-74
2023/12/10 04:54:52;;;;;;;3.92;0.98;;;;;;;;;;5047664;28;20049;-74
2023/12/10 04:57:20;;;;;;;6.65;0.90;;;;;;;;;;5044516;28;20048;-74
2023/12/10 04:59:49;;;;;;;0.88;0.80;;;;;;;;;;5044662;28;20119;-74
2023/12/10 05:02:18;;;;;;;6.28;1.15;;;;;;;;;;5049536;28;20055;-73
2023/12/10 05:04:47;;;;;;;2.53;0.82;;;;;;;;;;5045690;28;20049;-73
2023/12/10 05:07:15;;;;;;;2.88;0.80;;;;;;;;;;5050558;28;20052;-73
2023/12/10 05:09:44;;;;;;;1.70;0.80;;;;;;;;;;5052266;28;20494;-73
2023/12/10 05:12:12;;;;;;;3.53;1.20;;;;;;;;;;5047862;28;20065;-74
2023/12/10 05:14:41;;;;;;;4.88;0.93;;;;;;;;;;5044715;28;20048;-73
2023/12/10 05:17:09;;;;;;;4.63;1.10;;;;;;;;;;5039850;28;20183;-74
2023/12/10 05:19:39;;;;;;;3.38;1.00;;;;;;;;;;5047286;28;20128;-73
2023/12/10 05:22:08;;;;;;;5.75;0.90;;;;;;;;;;5049485;28;20080;-74
2023/12/10 05:24:36;;;;;;;5.07;0.95;;;;;;;;;;5052093;28;20051;-72
2023/12/10 05:27:05;;;;;;;4.53;1.08;;;;;;;;;;5051319;28;20056;-73
2023/12/10 05:29:33;;;;;;;6.57;0.90;;;;;;;;;;5046923;28;20063;-73
2023/12/10 05:32:02;;;;;;;3.78;0.98;;;;;;;;;;5043303;28;20127;-73
2023/12/10 05:34:30;;;;;;;1.98;1.42;;;;;;;;;;5049464;28;21162;-73
2023/12/10 05:37:00;;;;;;;2.63;0.88;;;;;;;;;;5048710;28;20053;-73
2023/12/10 05:39:28;;;;;;;6.70;1.10;;;;;;;;;;5051187;28;20504;-73
2023/12/10 05:41:57;;;;;;;9.48;1.67;;;;;;;;;;5048301;28;20051;-73
2023/12/10 05:44:27;;;;;;;7.95;1.65;;;;;;;;;;5048506;28;20045;-73
2023/12/10 05:46:55;;;;;;;6.63;1.20;;;;;;;;;;5049160;28;20055;-73
2023/12/10 05:49:24;;;;;;;7.10;1.05;;;;;;;;;;5041242;28;20048;-73
2023/12/10 05:51:53;;;;;;;4.60;0.93;;;;;;;;;;5044913;28;20114;-73
2023/12/10 05:54:22;;;;;;;9.63;1.30;;;;;;;;;;5044822;28;20041;-73
2023/12/10 05:56:51;;;;;;;6.60;1.17;;;;;;;;;;5048647;28;20049;-73
2023/12/10 05:59:19;;;;;;;4.55;1.30;;;;;;;;;;5043532;28;20080;-73
2023/12/10 06:01:48;;;;;;;2.42;1.20;;;;;;;;;;5050104;28;20072;-73
2023/12/10 06:04:16;;;;;;;6.53;1.20;;;;;;;;;;5040676;28;20053;-73
2023/12/10 06:06:45;;;;;;;7.22;1.23;;;;;;;;;;5039454;28;20049;-73
2023/12/10 06:09:14;;;;;;;8.20;1.25;;;;;;;;;;5041670;28;20103;-73
2023/12/10 06:11:44;;;;;;;6.47;0.98;;;;;;;;;;5046896;28;20051;-74
2023/12/10 06:14:12;;;;;;;5.28;0.85;;;;;;;;;;5049540;28;20355;-73
2023/12/10 06:16:41;;;;;;;4.93;1.10;;;;;;;;;;5048300;28;20053;-73
2023/12/10 06:19:09;;;;;;;5.32;1.25;;;;;;;;;;5048156;28;20044;-73
2023/12/10 06:21:38;;;;;;;10.18;1.40;;;;;;;;;;5048324;28;20045;-73
2023/12/10 06:24:06;;;;;;;5.95;1.45;;;;;;;;;;5045219;28;20040;-73
2023/12/10 06:26:35;;;;;;;3.20;0.80;;;;;;;;;;5049422;28;20057;-73
2023/12/10 06:29:05;;;;;;;10.57;1.52;;;;;;;;;;5050251;28;20053;-73
2023/12/10 06:31:33;;;;;;;4.38;1.02;;;;;;;;;;5038853;28;20049;-73
2023/12/10 06:34:01;;;;;;;5.18;0.90;;;;;;;;;;5039597;28;20114;-73
2023/12/10 06:36:30;;;;;;;2.97;1.13;;;;;;;;;;5044587;28;20044;-73
2023/12/10 06:38:59;;;;;;;3.88;1.20;;;;;;;;;;5041782;28;20175;-73
2023/12/10 06:41:27;;;;;;;7.80;1.33;;;;;;;;;;5047059;28;20045;-73
2023/12/10 06:43:56;;;;;;;6.80;0.93;;;;;;;;;;5046583;28;20102;-72
2023/12/10 06:46:25;;;;;;;6.93;1.42;;;;;;;;;;5042639;28;20453;-72
2023/12/10 06:48:54;;;;;;;9.70;1.30;;;;;;;;;;5042438;28;20048;-72
2023/12/10 06:51:22;;;;;;;5.63;1.17;;;;;;;;;;5047590;28;20068;-71
2023/12/10 06:53:51;;;;;;;2.33;1.38;;;;;;;;;;5045772;28;21333;-72
2023/12/10 06:56:19;;;;;;;4.28;0.80;;;;;;;;;;5049119;28;20045;-72
2023/12/10 06:58:48;;;;;;;6.07;1.35;;;;;;;;;;5043258;28;20086;-72
2023/12/10 07:01:16;;;;;;;6.53;1.35;;;;;;;;;;5046222;28;20048;-73
2023/12/10 07:03:47;;;;;;;4.65;1.15;;;;;;;;;;5042082;28;20076;-72
2023/12/10 07:06:15;;;;;;;3.38;1.20;;;;;;;;;;5049870;28;20056;-72
2023/12/10 07:08:44;;;;;;;5.82;1.15;;;;;;;;;;5049211;28;20048;-73
2023/12/10 07:11:12;;;;;;;6.82;1.38;;;;;;;;;;5040592;28;20044;-73
2023/12/10 07:13:41;;;;;;;6.55;0.98;;;;;;;;;;5043342;28;20037;-72
2023/12/10 07:16:10;;;;;;;4.68;0.80;;;;;;;;;;5045916;28;20060;-74
2023/12/10 07:18:38;;;;;;;2.17;1.02;;;;;;;;;;5045960;28;20045;-73
2023/12/10 07:21:08;;;;;;;5.63;1.80;;;;;;;;;;5047145;28;20048;-73
2023/12/10 07:23:37;;;;;;;3.38;1.05;;;;;;;;;;5048645;28;20449;-73
2023/12/10 07:26:05;;;;;;;5.75;1.25;;;;;;;;;;5048199;28;20080;-73
2023/12/10 07:28:34;;;;;;;4.40;0.90;;;;;;;;;;5037128;28;20049;-73
2023/12/10 07:31:02;;;;;;;3.95;1.10;;;;;;;;;;5043166;28;20060;-73
2023/12/10 07:33:31;;;;;;;5.95;1.50;;;;;;;;;;5047620;28;20136;-73
2023/12/10 07:36:00;;;;;;;6.20;1.50;;;;;;;;;;5044828;28;20057;-74
2023/12/10 07:38:29;;;;;;;8.18;1.65;;;;;;;;;;5042697;28;20041;-73
2023/12/10 07:40:58;;;;;;;3.65;1.15;;;;;;;;;;5042163;28;20058;-73
2023/12/10 07:43:26;;;;;;;4.80;1.35;;;;;;;;;;5047496;28;20091;-73
2023/12/10 07:45:55;;;;;;;7.07;2.03;;;;;;;;;;5041687;28;20551;-73
2023/12/10 07:48:23;;;;;;;3.70;1.38;;;;;;;;;;5047492;28;20048;-73
2023/12/10 07:50:52;;;;;;;5.75;1.27;;;;;;;;;;5046582;28;20126;-74
2023/12/10 07:53:20;;;;;;;8.32;1.30;;;;;;;;;;5041675;28;20053;-72
2023/12/10 07:55:50;;;;;;;2.38;1.13;;;;;;;;;;5042607;28;20058;-73
2023/12/10 07:58:19;;;;;;;4.35;1.05;;;;;;;;;;5043782;28;20122;-72
2023/12/10 08:00:47;;;;;;;6.15;1.33;;;;;;;;;;5045068;28;20103;-73
2023/12/10 08:03:16;;;;;;;3.50;1.15;;;;;;;;;;5049137;28;20389;-73
2023/12/10 08:05:44;;;;;;;5.90;1.33;;;;;;;;;;5048332;28;20037;-73
2023/12/10 08:08:13;;;;;;;3.75;1.00;;;;;;;;;;5038757;28;20053;-73
2023/12/10 08:10:41;;;;;;;7.75;1.63;;;;;;;;;;5040658;28;20453;-73
2023/12/10 08:13:11;;;;;;;9.50;1.35;;;;;;;;;;5042549;28;20506;-73
2023/12/10 08:15:40;;;;;;;10.43;1.65;;;;;;;;;;5044086;28;20041;-72
2023/12/10 08:18:08;;;;;;;6.80;1.15;;;;;;;;;;5040680;28;20133;-72
2023/12/10 08:20:37;;;;;;;3.15;1.10;;;;;;;;;;5043693;28;20062;-72
2023/12/10 08:23:06;;;;;;;5.95;1.02;;;;;;;;;;5041153;28;20481;-72
2023/12/10 08:25:34;;;;;;;15.40;1.65;;;;;;;;;;5046988;28;20106;-73
2023/12/10 08:28:02;;;;;;;3.55;1.05;;;;;;;;;;5045486;28;20503;-73
2023/12/10 08:30:32;;;;;;;7.28;1.00;;;;;;;;;;5040041;28;20057;-73
2023/12/10 08:33:01;;;;;;;5.10;1.15;;;;;;;;;;5042177;28;20414;-74
2023/12/10 08:35:30;;;;;;;5.15;1.30;;;;;;;;;;5046397;28;20053;-74
2023/12/10 08:37:58;;;;;;;8.77;1.58;;;;;;;;;;5044609;28;20150;-74
2023/12/10 08:40:26;;;;;;;4.13;1.17;;;;;;;;;;5039177;28;20541;-74
2023/12/10 08:42:55;;;;;;;4.00;1.30;;;;;;;;;;5046484;28;20049;-74
2023/12/10 08:45:23;;;;;;;6.80;1.20;;;;;;;;;;5041489;28;20179;-74
2023/12/10 08:47:53;;;;;;;5.57;1.10;;;;;;;;;;5041056;28;20069;-74
2023/12/10 08:50:22;;;;;;;6.78;1.40;;;;;;;;;;5042989;28;20045;-74
2023/12/10 08:52:50;;;;;;;5.95;1.30;;;;;;;;;;5042679;28;20175;-67
2023/12/10 08:55:19;;;;;;;6.50;1.80;;;;;;;;;;5040055;28;20505;-66
2023/12/10 08:57:47;;;;;;;4.30;1.30;;;;;;;;;;5045496;28;20147;-65
2023/12/10 09:00:16;;;;;;;2.88;1.30;;;;;;;;;;5040403;28;20057;-65
2023/12/10 09:02:45;;;;;;;3.80;1.25;;;;;;;;;;5046436;28;20073;-67
2023/12/10 09:05:15;;;;;;;4.00;0.98;;;;;;;;;;5045141;28;20111;-64
2023/12/10 09:07:43;;;;;;;3.13;0.88;;;;;;;;;;5040811;28;20501;-65
2023/12/10 09:10:12;;;;;;;5.10;1.02;;;;;;;;;;5036947;28;20042;-67
2023/12/10 09:12:41;;;;;;;6.85;1.42;;;;;;;;;;5038417;28;20103;-64
2023/12/10 09:15:10;;;;;;;3.58;0.93;;;;;;;;;;5037583;28;20052;-66
2023/12/10 09:17:39;;;;;;;4.38;1.73;;;;;;;;;;5040550;28;20052;-65
2023/12/10 09:20:09;;;;;;;5.30;1.25;;;;;;;;;;5039880;28;20046;-67
2023/12/10 09:22:39;;;;;;;4.20;0.93;;;;;;;;;;5043759;28;20049;-66
2023/12/10 09:25:08;;;;;;;3.53;1.38;;;;;;;;;;5045805;28;20056;-64
2023/12/10 09:27:36;;;;;;;6.45;1.30;;;;;;;;;;5044924;28;20561;-65
2023/12/10 09:30:05;;;;;;;5.70;1.15;;;;;;;;;;5038471;28;20049;-68
2023/12/10 09:32:34;;;;;;;9.27;1.30;;;;;;;;;;5038680;28;20501;-67
2023/12/10 09:35:04;;;;;;;3.92;1.20;;;;;;;;;;5035990;28;20045;-67
2023/12/10 09:37:33;;;;;;;4.97;1.00;;;;;;;;;;5044471;28;20163;-65
2023/12/10 09:40:03;;;;;;;7.85;1.45;;;;;;;;;;5033998;28;20041;-69
2023/12/10 09:42:32;;;;;;;4.05;1.23;;;;;;;;;;5051409;28;20443;-67
2023/12/10 09:45:02;;;;;;;7.78;1.73;;;;;;;;;;5041514;28;20383;-65
2023/12/10 09:47:32;;;;;;;5.15;1.20;;;;;;;;;;5043997;28;20064;-64
2023/12/10 09:50:01;;;;;;;6.00;1.30;;;;;;;;;;5047930;28;20087;-64
2023/12/10 09:52:30;;;;;;;4.60;1.15;;;;;;;;;;5050634;28;20128;-67
2023/12/10 09:54:59;;;;;;;5.57;1.83;;;;;;;;;;5049715;28;20048;-65
2023/12/10 09:57:30;;;;;;;5.03;1.33;;;;;;;;;;5043566;28;20107;-67
2023/12/10 09:59:59;;;;;;;4.68;0.77;;;;;;;;;;5043960;28;20056;-63
2023/12/10 10:02:32;;;;;;;4.97;1.30;;;;;;;;;;5048209;28;20132;-65
2023/12/10 10:05:01;;;;;;;5.93;1.08;;;;;;;;;;5045960;28;20045;-67
2023/12/10 10:07:30;;;;;;;2.15;0.98;;;;;;;;;;5045331;28;20064;-72
2023/12/10 10:09:59;;;;;;;1.92;0.90;;;;;;;;;;5046238;28;20045;-65
2023/12/10 10:12:30;;;;;;;3.78;1.48;;;;;;;;;;5046572;28;20132;-63
2023/12/10 10:15:00;;;;;;;5.70;0.93;;;;;;;;;;5032479;28;20049;-66
2023/12/10 10:17:29;;;;;;;3.83;1.23;;;;;;;;;;5048352;28;20049;-66
2023/12/10 10:19:59;;;;;;;4.15;1.08;;;;;;;;;;5041406;28;20049;-66
2023/12/10 10:22:28;;;;;;;8.80;1.15;;;;;;;;;;5050426;28;20072;-64
2023/12/10 10:24:56;;;;;;;4.75;1.10;;;;;;;;;;5049001;28;20049;-64
2023/12/10 10:27:25;;;;;;;6.43;1.08;;;;;;;;;;5044237;28;20057;-63
2023/12/10 10:29:56;;;;;;;1.80;0.88;;;;;;;;;;5049080;28;20049;-68
2023/12/10 10:32:25;;;;;;;2.72;1.35;;;;;;;;;;5041458;28;20041;-66
2023/12/10 10:34:54;;;;;;;6.03;2.15;;;;;;;;;;5050371;28;20053;-66
2023/12/10 10:37:24;;;;;;;7.18;1.35;;;;;;;;;;5040397;28;20052;-64
2023/12/10 10:39:52;;;;;;;4.25;1.00;;;;;;;;;;5032718;28;20061;-68
2023/12/10 10:42:21;;;;;;;4.03;1.35;;;;;;;;;;5043739;28;20047;-66
2023/12/10 10:44:49;;;;;;;2.80;1.00;;;;;;;;;;5041441;28;20057;-65
2023/12/10 10:47:20;;;;;;;3.45;1.10;;;;;;;;;;5044279;28;20599;-67
2023/12/10 10:49:51;;;;;;;7.07;1.10;;;;;;;;;;5045502;28;20395;-63
2023/12/10 10:52:40;;;;;;;6.18;1.38;;;;;;;;;;5040221;28;20072;-67
2023/12/10 10:55:09;;;;;;;3.97;1.33;;;;;;;;;;5045121;28;20052;-66
2023/12/10 10:57:39;;;;;;;5.22;1.05;;;;;;;;;;5048005;28;20041;-66
2023/12/10 11:00:26;;;;;;;5.78;0.90;;;;;;;;;;5039189;28;20045;-64
2023/12/10 11:02:56;;;;;;;4.68;1.08;;;;;;;;;;5046089;28;20495;-66
2023/12/10 11:05:31;;;;;;;4.28;1.42;;;;;;;;;;5041334;28;20072;-67
2023/12/10 11:08:00;;;;;;;7.88;1.17;;;;;;;;;;5049170;28;20037;-64
2023/12/10 11:10:29;;;;;;;4.30;1.75;;;;;;;;;;5040041;28;20064;-64
2023/12/10 11:12:59;;;;;;;4.00;1.23;;;;;;;;;;5048795;28;20056;-64
2023/12/10 11:15:28;;;;;;;2.38;0.90;;;;;;;;;;5048471;28;20052;-64
2023/12/10 11:18:01;;;;;;;4.70;0.80;;;;;;;;;;5045926;28;20063;-64
2023/12/10 11:20:31;;;;;;;5.32;1.23;;;;;;;;;;5037715;28;20045;-62
2023/12/10 11:23:00;;;;;;;3.53;1.23;;;;;;;;;;5039880;28;20057;-62
2023/12/10 11:25:29;;;;;;;8.48;1.00;;;;;;;;;;5041123;28;20470;-63
2023/12/10 11:27:58;;;;;;;2.67;0.93;;;;;;;;;;5043932;28;20041;-66
2023/12/10 11:30:27;;;;;;;3.88;0.95;;;;;;;;;;5041195;28;20037;-63
2023/12/10 11:32:56;;;;;;;4.80;0.90;;;;;;;;;;5045798;28;20045;-63
2023/12/10 11:35:26;;;;;;;4.65;1.13;;;;;;;;;;5044203;28;20053;-63
2023/12/10 11:37:55;;;;;;;4.18;1.20;;;;;;;;;;5047747;28;20090;-64
2023/12/10 11:40:23;;;;;;;2.97;0.80;;;;;;;;;;5043563;28;20057;-63
2023/12/10 11:42:52;;;;;;;7.28;1.50;;;;;;;;;;5048513;28;20103;-63
2023/12/10 11:45:20;;;;;;;2.83;1.10;;;;;;;;;;5042578;28;20037;-63
2023/12/10 11:47:51;;;;;;;1.55;0.80;;;;;;;;;;5044645;28;20057;-64
2023/12/10 11:50:20;;;;;;;4.88;1.10;;;;;;;;;;5038598;28;20075;-63
2023/12/10 11:52:51;;;;;;;2.78;0.93;;;;;;;;;;5042353;28;20134;-63
2023/12/10 11:55:20;;;;;;;3.55;0.88;;;;;;;;;;5047481;28;20692;-63
2023/12/10 11:57:48;;;;;;;2.17;1.25;;;;;;;;;;5043240;28;20415;-64
2023/12/10 12:00:17;;;;;;;8.15;1.63;;;;;;;;;;5046030;28;20036;-72
2023/12/10 12:02:46;;;;;;;4.78;1.20;;;;;;;;;;5047004;28;20478;-64
2023/12/10 12:05:15;;;;;;;2.72;0.95;;;;;;;;;;5042114;28;20623;-67
2023/12/10 12:07:46;;;;;;;4.80;0.85;;;;;;;;;;5044949;28;20041;-66
2023/12/10 12:10:17;;;;;;;8.18;1.52;;;;;;;;;;5044984;28;20081;-65
2023/12/10 12:12:46;;;;;;;2.13;0.85;;;;;;;;;;5041617;28;20052;-62
2023/12/10 12:15:16;;;;;;;5.95;0.73;;;;;;;;;;5040248;28;20041;-63
2023/12/10 12:17:46;;;;;;;1.67;0.57;;;;;;;;;;5046432;28;20414;-68
2023/12/10 12:20:15;;;;;;;3.45;0.95;;;;;;;;;;5043945;28;20048;-64
2023/12/10 12:22:44;;;;;;;4.80;1.17;;;;;;;;;;5047343;28;20510;-62
2023/12/10 12:25:23;;;;;;;4.70;0.95;;;;;;;;;;5046482;28;20048;-64
2023/12/10 12:27:51;;;;;;;2.55;0.70;;;;;;;;;;5043910;28;20057;-65
2023/12/10 12:30:20;;;;;;;5.63;1.10;;;;;;;;;;5042760;28;20540;-63
2023/12/10 12:32:49;;;;;;;0.52;0.50;;;;;;;;;;5046312;28;20243;-64
2023/12/10 12:35:17;;;;;;;2.10;0.90;;;;;;;;;;5043040;28;20048;-64
2023/12/10 12:37:47;;;;;;;4.72;0.93;;;;;;;;;;5042939;28;20045;-64
2023/12/10 12:40:15;;;;;;;5.47;1.02;;;;;;;;;;5048295;28;20048;-64
2023/12/10 12:42:45;;;;;;;2.95;0.80;;;;;;;;;;5043003;28;20049;-65
2023/12/10 12:45:14;;;;;;;4.35;0.77;;;;;;;;;;5043372;28;20186;-64
2023/12/10 12:47:42;;;;;;;30.05;18.00;;;;;;;;;;5046234;28;20072;-63
2023/12/10 12:50:11;;;;;;;18.10;10.50;;;;;;;;;;5045653;28;20440;-64
2023/12/10 12:52:39;;;;;;;4.93;2.15;;;;;;;;;;5045326;28;20122;-69
2023/12/10 12:55:08;;;;;;;2.42;0.88;;;;;;;;;;5039734;28;20123;-63
2023/12/10 12:57:37;;;;;;;5.57;1.30;;;;;;;;;;5042569;28;20072;-63
2023/12/10 13:00:08;;;;;;;1.13;0.90;;;;;;;;;;5044011;28;20779;-62
2023/12/10 13:02:37;;;;;;;5.75;1.13;;;;;;;;;;5046027;28;20469;-65
2023/12/10 13:05:05;;;;;;;10.05;1.42;;;;;;;;;;5041355;28;20049;-63
2023/12/10 13:07:34;;;;;;;2.08;0.80;;;;;;;;;;5040867;28;20106;-64
2023/12/10 13:10:03;;;;;;;4.75;1.30;;;;;;;;;;5042439;28;20053;-67
2023/12/10 13:12:32;;;;;;;3.55;0.90;;;;;;;;;;5047593;28;20103;-63
2023/12/10 13:15:01;;;;;;;3.38;0.85;;;;;;;;;;5048079;28;20473;-61
2023/12/10 13:17:31;;;;;;;6.13;1.10;;;;;;;;;;5044541;28;20110;-66
2023/12/10 13:20:00;;;;;;;2.25;0.90;;;;;;;;;;5042523;28;20090;-65
2023/12/10 13:22:29;;;;;;;3.20;1.25;;;;;;;;;;5043903;28;20549;-65
2023/12/10 13:24:57;;;;;;;5.10;1.30;;;;;;;;;;5038050;28;20474;-65
2023/12/10 13:27:26;;;;;;;2.28;0.98;;;;;;;;;;5048120;28;20467;-67
2023/12/10 13:29:55;;;;;;;6.30;1.00;;;;;;;;;;5043622;28;20049;-64
2023/12/10 13:32:23;;;;;;;3.40;0.98;;;;;;;;;;5047791;28;20049;-63
2023/12/10 13:34:53;;;;;;;3.08;0.80;;;;;;;;;;5045345;28;20045;-65
2023/12/10 13:37:22;;;;;;;5.93;1.13;;;;;;;;;;5046324;28;20061;-66
2023/12/10 13:39:50;;;;;;;4.20;1.00;;;;;;;;;;5049095;28;20060;-63
2023/12/10 13:42:19;;;;;;;2.97;0.90;;;;;;;;;;5051624;28;20049;-67
2023/12/10 13:44:48;;;;;;;2.75;0.95;;;;;;;;;;5045364;28;20072;-71
2023/12/10 13:47:16;;;;;;;2.65;0.88;;;;;;;;;;5044858;28;20122;-66
2023/12/10 13:49:45;;;;;;;1.67;0.80;;;;;;;;;;5048808;28;20542;-63
2023/12/10 13:52:15;;;;;;;3.45;0.80;;;;;;;;;;5050211;28;20541;-63
2023/12/10 13:54:44;;;;;;;1.50;0.65;;;;;;;;;;5047512;28;20045;-66
2023/12/10 13:57:12;;;;;;;1.65;0.80;;;;;;;;;;5050485;28;20057;-64
2023/12/10 13:59:41;;;;;;;4.22;0.90;;;;;;;;;;5046434;28;20506;-66
2023/12/10 14:02:09;;;;;;;6.10;1.10;;;;;;;;;;5050222;28;20081;-64
2023/12/10 14:04:38;;;;;;;5.13;1.02;;;;;;;;;;5049110;28;20045;-63
2023/12/10 14:07:07;;;;;;;3.33;1.23;;;;;;;;;;5049566;28;20592;-64
2023/12/10 14:09:37;;;;;;;6.88;1.52;;;;;;;;;;5048964;28;20045;-67
2023/12/10 14:12:06;;;;;;;4.88;0.80;;;;;;;;;;5047830;28;20106;-65
2023/12/10 14:14:36;;;;;;;1.27;0.98;;;;;;;;;;5045503;28;20134;-64
2023/12/10 14:17:04;;;;;;;3.60;1.02;;;;;;;;;;5045208;28;20102;-67
2023/12/10 14:19:33;;;;;;;4.70;0.98;;;;;;;;;;5047671;28;20063;-68
2023/12/10 14:22:02;;;;;;;3.47;1.02;;;;;;;;;;5047317;28;20049;-66
2023/12/10 14:24:30;;;;;;;4.50;2.97;;;;;;;;;;5045011;28;20279;-65
2023/12/10 14:27:00;;;;;;;3.42;1.92;;;;;;;;;;5046950;28;20083;-64
2023/12/10 14:29:29;;;;;;;5.63;1.33;;;;;;;;;;5043967;28;20482;-63
2023/12/10 14:31:57;;;;;;;5.45;1.30;;;;;;;;;;5046573;28;20057;-67
2023/12/10 14:34:26;;;;;;;2.92;1.15;;;;;;;;;;5043288;28;20118;-65
2023/12/10 14:36:55;;;;;;;2.20;0.82;;;;;;;;;;5047675;28;20124;-65
2023/12/10 14:39:25;;;;;;;6.22;3.40;;;;;;;;;;5042862;28;20124;-69
2023/12/10 14:41:53;;;;;;;5.72;1.85;;;;;;;;;;5049345;28;20682;-65
2023/12/10 14:44:23;;;;;;;5.60;1.15;;;;;;;;;;5047140;28;20103;-63
2023/12/10 14:46:52;;;;;;;6.75;1.42;;;;;;;;;;5040513;28;20437;-66
2023/12/10 14:49:20;;;;;;;10.52;1.50;;;;;;;;;;5046637;28;20045;-66
2023/12/10 14:51:49;;;;;;;7.05;1.90;;;;;;;;;;5046121;28;20449;-64
2023/12/10 14:54:18;;;;;;;6.15;1.02;;;;;;;;;;5045172;28;20053;-65